sensor_id;sensor_type;location;lat;lon;timestamp;temperature;humidity
12632;DHT22;6381;45.748;12.106;2023-07-22T00:02:31;23.20;99.10
12632;DHT22;6381;45.748;12.106;2023-07-22T00:05:01;23.00;98.30
12632;DHT22;6381;45.748;12.106;2023-07-22T00:07:34;22.90;98.50
12632;DHT22;6381;45.748;12.106;2023-07-22T00:10:05;23.00;98.70
12632;DHT22;6381;45.748;12.106;2023-07-22T00:12:36;22.90;99.00
12632;DHT22;6381;45.748;12.106;2023-07-22T00:15:07;23.00;98.90
12632;DHT22;6381;45.748;12.106;2023-07-22T00:17:41;23.00;98.90
12632;DHT22;6381;45.748;12.106;2023-07-22T00:20:12;22.90;98.70
12632;DHT22;6381;45.748;12.106;2023-07-22T00:22:46;23.10;98.80
12632;DHT22;6381;45.748;12.106;2023-07-22T00:25:16;23.00;98.20
12632;DHT22;6381;45.748;12.106;2023-07-22T00:27:47;23.00;97.40
12632;DHT22;6381;45.748;12.106;2023-07-22T00:30:17;23.00;96.00
12632;DHT22;6381;45.748;12.106;2023-07-22T00:32:48;22.90;95.90
12632;DHT22;6381;45.748;12.106;2023-07-22T00:35:20;22.90;95.90
12632;DHT22;6381;45.748;12.106;2023-07-22T00:37:53;22.90;96.70
12632;DHT22;6381;45.748;12.106;2023-07-22T00:40:24;23.00;97.40
12632;DHT22;6381;45.748;12.106;2023-07-22T00:42:55;23.10;97.90
12632;DHT22;6381;45.748;12.106;2023-07-22T00:45:25;22.90;98.20
12632;DHT22;6381;45.748;12.106;2023-07-22T00:47:56;23.00;97.90
12632;DHT22;6381;45.748;12.106;2023-07-22T00:50:27;22.70;97.20
12632;DHT22;6381;45.748;12.106;2023-07-22T00:53:01;22.80;97.20
12632;DHT22;6381;45.748;12.106;2023-07-22T00:55:33;22.60;97.40
12632;DHT22;6381;45.748;12.106;2023-07-22T00:58:05;22.70;97.60
12632;DHT22;6381;45.748;12.106;2023-07-22T01:00:37;22.70;97.60
12632;DHT22;6381;45.748;12.106;2023-07-22T01:03:08;22.80;98.80
12632;DHT22;6381;45.748;12.106;2023-07-22T01:05:39;22.80;99.00
12632;DHT22;6381;45.748;12.106;2023-07-22T01:08:12;22.70;99.70
12632;DHT22;6381;45.748;12.106;2023-07-22T01:10:44;22.70;99.90
12632;DHT22;6381;45.748;12.106;2023-07-22T01:13:14;22.60;99.90
12632;DHT22;6381;45.748;12.106;2023-07-22T01:15:46;22.50;99.90
12632;DHT22;6381;45.748;12.106;2023-07-22T01:18:17;22.50;99.90
12632;DHT22;6381;45.748;12.106;2023-07-22T01:20:47;22.30;99.90
12632;DHT22;6381;45.748;12.106;2023-07-22T01:23:20;21.90;99.90
12632;DHT22;6381;45.748;12.106;2023-07-22T01:25:51;21.90;99.90
12632;DHT22;6381;45.748;12.106;2023-07-22T01:28:21;22.00;99.90
12632;DHT22;6381;45.748;12.106;2023-07-22T01:30:52;22.10;99.90
12632;DHT22;6381;45.748;12.106;2023-07-22T01:33:24;22.20;99.90
12632;DHT22;6381;45.748;12.106;2023-07-22T01:35:56;22.20;99.90
12632;DHT22;6381;45.748;12.106;2023-07-22T01:38:29;22.10;99.90
12632;DHT22;6381;45.748;12.106;2023-07-22T01:41:04;22.20;99.90
12632;DHT22;6381;45.748;12.106;2023-07-22T01:43:35;22.10;99.90
12632;DHT22;6381;45.748;12.106;2023-07-22T01:46:05;22.00;99.90
12632;DHT22;6381;45.748;12.106;2023-07-22T01:48:36;22.10;99.90
12632;DHT22;6381;45.748;12.106;2023-07-22T01:51:07;22.10;99.90
12632;DHT22;6381;45.748;12.106;2023-07-22T01:53:39;22.10;99.90
12632;DHT22;6381;45.748;12.106;2023-07-22T01:56:09;22.10;99.90
12632;DHT22;6381;45.748;12.106;2023-07-22T01:58:39;21.90;99.90
12632;DHT22;6381;45.748;12.106;2023-07-22T02:01:10;21.90;99.90
12632;DHT22;6381;45.748;12.106;2023-07-22T02:03:42;22.00;99.90
12632;DHT22;6381;45.748;12.106;2023-07-22T02:06:14;22.00;99.90
12632;DHT22;6381;45.748;12.106;2023-07-22T02:08:48;22.10;99.90
12632;DHT22;6381;45.748;12.106;2023-07-22T02:11:20;21.90;99.90
12632;DHT22;6381;45.748;12.106;2023-07-22T02:13:50;21.80;99.90
12632;DHT22;6381;45.748;12.106;2023-07-22T02:16:20;21.80;99.90
12632;DHT22;6381;45.748;12.106;2023-07-22T02:18:51;21.90;99.90
12632;DHT22;6381;45.748;12.106;2023-07-22T02:21:21;22.00;99.90
12632;DHT22;6381;45.748;12.106;2023-07-22T02:23:53;22.00;99.90
12632;DHT22;6381;45.748;12.106;2023-07-22T02:26:24;22.00;99.90
12632;DHT22;6381;45.748;12.106;2023-07-22T02:28:55;21.90;99.90
12632;DHT22;6381;45.748;12.106;2023-07-22T02:31:26;22.10;99.90
12632;DHT22;6381;45.748;12.106;2023-07-22T02:33:57;22.10;99.90
12632;DHT22;6381;45.748;12.106;2023-07-22T02:36:28;22.00;99.90
12632;DHT22;6381;45.748;12.106;2023-07-22T02:39:00;21.90;99.90
12632;DHT22;6381;45.748;12.106;2023-07-22T02:41:31;21.70;99.90
12632;DHT22;6381;45.748;12.106;2023-07-22T02:44:01;21.80;99.90
12632;DHT22;6381;45.748;12.106;2023-07-22T02:46:32;21.80;99.90
12632;DHT22;6381;45.748;12.106;2023-07-22T02:49:03;21.80;99.90
12632;DHT22;6381;45.748;12.106;2023-07-22T02:51:33;21.60;99.90
12632;DHT22;6381;45.748;12.106;2023-07-22T02:54:07;21.50;99.90
12632;DHT22;6381;45.748;12.106;2023-07-22T02:56:37;21.50;99.90
12632;DHT22;6381;45.748;12.106;2023-07-22T02:59:10;21.70;99.90
12632;DHT22;6381;45.748;12.106;2023-07-22T03:01:41;21.70;99.90
12632;DHT22;6381;45.748;12.106;2023-07-22T03:04:13;21.70;99.90
12632;DHT22;6381;45.748;12.106;2023-07-22T03:06:44;21.60;99.90
12632;DHT22;6381;45.748;12.106;2023-07-22T03:09:17;21.60;99.90
12632;DHT22;6381;45.748;12.106;2023-07-22T03:11:51;21.60;99.90
12632;DHT22;6381;45.748;12.106;2023-07-22T03:14:22;21.80;99.90
12632;DHT22;6381;45.748;12.106;2023-07-22T03:16:52;21.80;99.90
12632;DHT22;6381;45.748;12.106;2023-07-22T03:19:23;21.60;99.90
12632;DHT22;6381;45.748;12.106;2023-07-22T03:21:53;21.60;99.90
12632;DHT22;6381;45.748;12.106;2023-07-22T03:24:26;21.60;99.90
12632;DHT22;6381;45.748;12.106;2023-07-22T03:26:56;21.60;99.90
12632;DHT22;6381;45.748;12.106;2023-07-22T03:29:28;21.60;99.90
12632;DHT22;6381;45.748;12.106;2023-07-22T03:31:58;21.60;99.90
12632;DHT22;6381;45.748;12.106;2023-07-22T03:34:31;21.70;99.90
12632;DHT22;6381;45.748;12.106;2023-07-22T03:37:01;21.50;99.80
12632;DHT22;6381;45.748;12.106;2023-07-22T03:39:33;21.40;99.90
12632;DHT22;6381;45.748;12.106;2023-07-22T03:42:04;21.40;99.80
12632;DHT22;6381;45.748;12.106;2023-07-22T03:44:35;21.50;99.80
12632;DHT22;6381;45.748;12.106;2023-07-22T03:47:06;19.70;98.90
12632;DHT22;6381;45.748;12.106;2023-07-22T03:49:39;21.60;99.20
12632;DHT22;6381;45.748;12.106;2023-07-22T03:52:09;21.60;98.70
12632;DHT22;6381;45.748;12.106;2023-07-22T03:54:44;21.50;99.20
12632;DHT22;6381;45.748;12.106;2023-07-22T03:57:14;21.40;98.80
12632;DHT22;6381;45.748;12.106;2023-07-22T03:59:45;21.40;99.00
12632;DHT22;6381;45.748;12.106;2023-07-22T04:02:15;21.50;99.10
12632;DHT22;6381;45.748;12.106;2023-07-22T04:04:46;21.50;99.10
12632;DHT22;6381;45.748;12.106;2023-07-22T04:07:16;21.50;99.10
12632;DHT22;6381;45.748;12.106;2023-07-22T04:09:49;21.60;98.80
12632;DHT22;6381;45.748;12.106;2023-07-22T04:12:20;21.70;98.80
12632;DHT22;6381;45.748;12.106;2023-07-22T04:14:50;21.60;98.90
12632;DHT22;6381;45.748;12.106;2023-07-22T04:17:21;21.60;99.00
12632;DHT22;6381;45.748;12.106;2023-07-22T04:19:52;21.60;98.90
12632;DHT22;6381;45.748;12.106;2023-07-22T04:22:24;21.70;98.80
12632;DHT22;6381;45.748;12.106;2023-07-22T04:24:56;21.60;98.80
12632;DHT22;6381;45.748;12.106;2023-07-22T04:27:29;21.60;98.70
12632;DHT22;6381;45.748;12.106;2023-07-22T04:29:59;21.80;99.50
12632;DHT22;6381;45.748;12.106;2023-07-22T04:32:30;21.90;99.50
12632;DHT22;6381;45.748;12.106;2023-07-22T04:35:03;22.00;99.90
12632;DHT22;6381;45.748;12.106;2023-07-22T04:37:34;21.90;99.90
12632;DHT22;6381;45.748;12.106;2023-07-22T04:40:09;22.00;99.90
12632;DHT22;6381;45.748;12.106;2023-07-22T04:42:43;22.00;99.90
12632;DHT22;6381;45.748;12.106;2023-07-22T04:45:14;21.90;99.90
12632;DHT22;6381;45.748;12.106;2023-07-22T04:47:46;21.80;99.90
12632;DHT22;6381;45.748;12.106;2023-07-22T04:50:18;21.80;99.90
12632;DHT22;6381;45.748;12.106;2023-07-22T04:52:50;21.90;99.90
12632;DHT22;6381;45.748;12.106;2023-07-22T04:55:22;21.70;99.90
12632;DHT22;6381;45.748;12.106;2023-07-22T04:57:53;21.90;99.90
12632;DHT22;6381;45.748;12.106;2023-07-22T05:00:23;21.70;99.90
12632;DHT22;6381;45.748;12.106;2023-07-22T05:02:54;21.80;99.90
12632;DHT22;6381;45.748;12.106;2023-07-22T05:05:26;21.80;99.90
12632;DHT22;6381;45.748;12.106;2023-07-22T05:07:56;21.80;99.60
12632;DHT22;6381;45.748;12.106;2023-07-22T05:10:29;21.80;99.60
12632;DHT22;6381;45.748;12.106;2023-07-22T05:12:59;22.00;99.00
12632;DHT22;6381;45.748;12.106;2023-07-22T05:15:30;22.00;98.10
12632;DHT22;6381;45.748;12.106;2023-07-22T05:18:01;22.00;98.00
12632;DHT22;6381;45.748;12.106;2023-07-22T05:20:32;22.00;97.90
12632;DHT22;6381;45.748;12.106;2023-07-22T05:23:03;22.00;98.00
12632;DHT22;6381;45.748;12.106;2023-07-22T05:25:35;22.10;97.60
12632;DHT22;6381;45.748;12.106;2023-07-22T05:28:06;22.10;97.40
12632;DHT22;6381;45.748;12.106;2023-07-22T05:30:37;22.30;97.60
12632;DHT22;6381;45.748;12.106;2023-07-22T05:33:07;22.30;97.00
12632;DHT22;6381;45.748;12.106;2023-07-22T05:35:37;22.30;96.90
12632;DHT22;6381;45.748;12.106;2023-07-22T05:38:08;22.50;96.70
12632;DHT22;6381;45.748;12.106;2023-07-22T05:40:40;22.50;96.40
12632;DHT22;6381;45.748;12.106;2023-07-22T05:43:10;22.60;96.10
12632;DHT22;6381;45.748;12.106;2023-07-22T05:45:41;22.60;96.20
12632;DHT22;6381;45.748;12.106;2023-07-22T05:48:11;22.70;96.30
12632;DHT22;6381;45.748;12.106;2023-07-22T05:50:42;22.70;96.10
12632;DHT22;6381;45.748;12.106;2023-07-22T05:53:12;22.80;95.80
12632;DHT22;6381;45.748;12.106;2023-07-22T05:55:44;22.90;95.80
12632;DHT22;6381;45.748;12.106;2023-07-22T05:58:19;23.10;95.10
12632;DHT22;6381;45.748;12.106;2023-07-22T06:00:49;23.10;95.00
12632;DHT22;6381;45.748;12.106;2023-07-22T06:03:20;23.20;94.90
12632;DHT22;6381;45.748;12.106;2023-07-22T06:05:51;23.20;94.40
12632;DHT22;6381;45.748;12.106;2023-07-22T06:08:21;23.30;93.80
12632;DHT22;6381;45.748;12.106;2023-07-22T06:10:53;23.30;93.70
12632;DHT22;6381;45.748;12.106;2023-07-22T06:13:24;23.40;92.70
12632;DHT22;6381;45.748;12.106;2023-07-22T06:15:55;23.40;92.30
12632;DHT22;6381;45.748;12.106;2023-07-22T06:18:25;23.60;92.80
12632;DHT22;6381;45.748;12.106;2023-07-22T06:20:58;23.80;93.40
12632;DHT22;6381;45.748;12.106;2023-07-22T06:23:29;23.80;93.00
12632;DHT22;6381;45.748;12.106;2023-07-22T06:26:02;23.60;93.20
12632;DHT22;6381;45.748;12.106;2023-07-22T06:28:32;23.70;93.60
12632;DHT22;6381;45.748;12.106;2023-07-22T06:31:03;24.00;93.50
12632;DHT22;6381;45.748;12.106;2023-07-22T06:33:33;24.10;92.10
12632;DHT22;6381;45.748;12.106;2023-07-22T06:36:05;24.30;93.30
12632;DHT22;6381;45.748;12.106;2023-07-22T06:38:35;24.50;93.40
12632;DHT22;6381;45.748;12.106;2023-07-22T06:41:08;24.80;93.30
12632;DHT22;6381;45.748;12.106;2023-07-22T06:43:39;24.80;93.00
12632;DHT22;6381;45.748;12.106;2023-07-22T06:46:09;25.00;93.00
12632;DHT22;6381;45.748;12.106;2023-07-22T06:48:40;25.20;92.60
12632;DHT22;6381;45.748;12.106;2023-07-22T06:51:11;25.30;91.80
12632;DHT22;6381;45.748;12.106;2023-07-22T06:53:42;25.10;91.50
12632;DHT22;6381;45.748;12.106;2023-07-22T06:56:14;25.20;91.60
12632;DHT22;6381;45.748;12.106;2023-07-22T06:58:44;25.30;91.70
12632;DHT22;6381;45.748;12.106;2023-07-22T07:01:15;25.40;91.90
12632;DHT22;6381;45.748;12.106;2023-07-22T07:03:45;25.50;91.00
12632;DHT22;6381;45.748;12.106;2023-07-22T07:06:17;25.40;90.80
12632;DHT22;6381;45.748;12.106;2023-07-22T07:08:47;25.30;91.70
12632;DHT22;6381;45.748;12.106;2023-07-22T07:11:20;25.40;91.50
12632;DHT22;6381;45.748;12.106;2023-07-22T07:13:51;25.70;90.80
12632;DHT22;6381;45.748;12.106;2023-07-22T07:16:23;25.80;88.70
12632;DHT22;6381;45.748;12.106;2023-07-22T07:18:55;25.80;85.40
12632;DHT22;6381;45.748;12.106;2023-07-22T07:21:27;25.90;85.40
12632;DHT22;6381;45.748;12.106;2023-07-22T07:24:00;25.90;82.80
12632;DHT22;6381;45.748;12.106;2023-07-22T07:26:33;26.00;83.70
12632;DHT22;6381;45.748;12.106;2023-07-22T07:29:03;26.10;83.50
12632;DHT22;6381;45.748;12.106;2023-07-22T07:31:34;26.10;81.20
12632;DHT22;6381;45.748;12.106;2023-07-22T07:34:04;26.30;81.10
12632;DHT22;6381;45.748;12.106;2023-07-22T07:36:35;26.10;84.10
12632;DHT22;6381;45.748;12.106;2023-07-22T07:39:05;26.30;83.40
12632;DHT22;6381;45.748;12.106;2023-07-22T07:41:38;26.30;79.40
12632;DHT22;6381;45.748;12.106;2023-07-22T07:44:08;26.10;79.90
12632;DHT22;6381;45.748;12.106;2023-07-22T07:46:39;26.10;80.00
12632;DHT22;6381;45.748;12.106;2023-07-22T07:49:09;26.30;81.30
12632;DHT22;6381;45.748;12.106;2023-07-22T07:51:41;26.50;76.90
12632;DHT22;6381;45.748;12.106;2023-07-22T07:54:14;26.40;77.10
12632;DHT22;6381;45.748;12.106;2023-07-22T07:56:48;26.30;77.10
12632;DHT22;6381;45.748;12.106;2023-07-22T07:59:18;26.30;78.50
12632;DHT22;6381;45.748;12.106;2023-07-22T08:01:49;26.20;80.70
12632;DHT22;6381;45.748;12.106;2023-07-22T08:04:20;26.20;81.10
12632;DHT22;6381;45.748;12.106;2023-07-22T08:06:53;26.40;80.90
12632;DHT22;6381;45.748;12.106;2023-07-22T08:09:23;26.40;78.50
12632;DHT22;6381;45.748;12.106;2023-07-22T08:11:55;26.40;76.60
12632;DHT22;6381;45.748;12.106;2023-07-22T08:14:26;26.50;79.20
12632;DHT22;6381;45.748;12.106;2023-07-22T08:16:58;26.50;80.30
12632;DHT22;6381;45.748;12.106;2023-07-22T08:19:32;26.60;80.50
12632;DHT22;6381;45.748;12.106;2023-07-22T08:22:04;26.50;79.10
12632;DHT22;6381;45.748;12.106;2023-07-22T08:24:34;26.70;78.30
12632;DHT22;6381;45.748;12.106;2023-07-22T08:27:06;26.80;75.70
12632;DHT22;6381;45.748;12.106;2023-07-22T08:29:37;26.80;76.50
12632;DHT22;6381;45.748;12.106;2023-07-22T08:32:07;26.80;74.50
12632;DHT22;6381;45.748;12.106;2023-07-22T08:34:38;26.90;76.30
12632;DHT22;6381;45.748;12.106;2023-07-22T08:37:12;26.90;73.80
12632;DHT22;6381;45.748;12.106;2023-07-22T08:39:44;27.20;75.70
12632;DHT22;6381;45.748;12.106;2023-07-22T08:42:18;27.40;74.60
12632;DHT22;6381;45.748;12.106;2023-07-22T08:44:49;27.20;71.30
12632;DHT22;6381;45.748;12.106;2023-07-22T08:47:27;27.50;77.90
12632;DHT22;6381;45.748;12.106;2023-07-22T08:50:20;27.70;75.00
12632;DHT22;6381;45.748;12.106;2023-07-22T08:52:51;27.40;73.80
12632;DHT22;6381;45.748;12.106;2023-07-22T08:55:24;27.50;75.00
12632;DHT22;6381;45.748;12.106;2023-07-22T08:57:56;27.40;71.30
12632;DHT22;6381;45.748;12.106;2023-07-22T09:00:28;27.50;73.90
12632;DHT22;6381;45.748;12.106;2023-07-22T09:02:59;27.50;73.30
12632;DHT22;6381;45.748;12.106;2023-07-22T09:05:32;27.60;71.60
12632;DHT22;6381;45.748;12.106;2023-07-22T09:08:06;27.70;68.30
12632;DHT22;6381;45.748;12.106;2023-07-22T09:10:38;27.80;73.20
12632;DHT22;6381;45.748;12.106;2023-07-22T09:13:15;27.70;72.00
12632;DHT22;6381;45.748;12.106;2023-07-22T09:15:50;27.90;71.70
12632;DHT22;6381;45.748;12.106;2023-07-22T09:18:21;27.90;70.80
12632;DHT22;6381;45.748;12.106;2023-07-22T09:20:51;28.20;71.20
12632;DHT22;6381;45.748;12.106;2023-07-22T09:23:32;28.20;72.10
12632;DHT22;6381;45.748;12.106;2023-07-22T09:26:10;28.40;71.80
12632;DHT22;6381;45.748;12.106;2023-07-22T09:28:53;28.40;70.60
12632;DHT22;6381;45.748;12.106;2023-07-22T09:31:27;28.20;66.80
12632;DHT22;6381;45.748;12.106;2023-07-22T09:34:09;28.00;65.90
12632;DHT22;6381;45.748;12.106;2023-07-22T09:36:52;28.10;64.60
12632;DHT22;6381;45.748;12.106;2023-07-22T09:39:26;28.30;66.40
12632;DHT22;6381;45.748;12.106;2023-07-22T09:42:00;28.40;67.50
12632;DHT22;6381;45.748;12.106;2023-07-22T09:44:37;28.70;70.30
12632;DHT22;6381;45.748;12.106;2023-07-22T09:47:12;28.60;68.10
12632;DHT22;6381;45.748;12.106;2023-07-22T09:49:44;28.50;68.20
12632;DHT22;6381;45.748;12.106;2023-07-22T09:52:17;28.50;68.00
12632;DHT22;6381;45.748;12.106;2023-07-22T09:54:50;28.60;67.70
12632;DHT22;6381;45.748;12.106;2023-07-22T09:57:22;28.90;66.70
12632;DHT22;6381;45.748;12.106;2023-07-22T09:59:56;28.80;62.50
12632;DHT22;6381;45.748;12.106;2023-07-22T10:02:40;28.60;65.90
12632;DHT22;6381;45.748;12.106;2023-07-22T10:05:17;28.90;71.30
12632;DHT22;6381;45.748;12.106;2023-07-22T10:07:53;29.20;66.70
12632;DHT22;6381;45.748;12.106;2023-07-22T10:10:29;29.30;67.20
12632;DHT22;6381;45.748;12.106;2023-07-22T10:13:02;29.50;65.80
12632;DHT22;6381;45.748;12.106;2023-07-22T10:15:39;29.60;62.40
12632;DHT22;6381;45.748;12.106;2023-07-22T10:18:11;29.60;60.10
12632;DHT22;6381;45.748;12.106;2023-07-22T10:20:46;29.70;59.70
12632;DHT22;6381;45.748;12.106;2023-07-22T10:23:21;29.70;58.70
12632;DHT22;6381;45.748;12.106;2023-07-22T10:25:53;30.10;61.20
12632;DHT22;6381;45.748;12.106;2023-07-22T10:28:23;30.10;59.90
12632;DHT22;6381;45.748;12.106;2023-07-22T10:30:56;30.00;60.00
12632;DHT22;6381;45.748;12.106;2023-07-22T10:33:27;29.50;58.20
12632;DHT22;6381;45.748;12.106;2023-07-22T10:36:05;28.60;60.10
12632;DHT22;6381;45.748;12.106;2023-07-22T10:38:36;28.30;58.40
12632;DHT22;6381;45.748;12.106;2023-07-22T10:41:12;28.00;62.80
12632;DHT22;6381;45.748;12.106;2023-07-22T10:43:53;27.80;64.60
12632;DHT22;6381;45.748;12.106;2023-07-22T10:46:35;27.60;64.80
12632;DHT22;6381;45.748;12.106;2023-07-22T10:49:10;27.30;66.30
12632;DHT22;6381;45.748;12.106;2023-07-22T10:51:41;27.20;65.40
12632;DHT22;6381;45.748;12.106;2023-07-22T10:54:12;27.10;66.00
12632;DHT22;6381;45.748;12.106;2023-07-22T10:56:43;27.00;67.90
12632;DHT22;6381;45.748;12.106;2023-07-22T10:59:13;26.90;66.80
12632;DHT22;6381;45.748;12.106;2023-07-22T11:01:45;26.80;64.80
12632;DHT22;6381;45.748;12.106;2023-07-22T11:04:27;26.70;65.80
12632;DHT22;6381;45.748;12.106;2023-07-22T11:07:30;26.50;71.00
12632;DHT22;6381;45.748;12.106;2023-07-22T11:10:17;26.10;84.00
12632;DHT22;6381;45.748;12.106;2023-07-22T11:12:51;25.70;97.40
12632;DHT22;6381;45.748;12.106;2023-07-22T11:15:29;25.10;99.90
12632;DHT22;6381;45.748;12.106;2023-07-22T11:18:02;24.80;99.90
12632;DHT22;6381;45.748;12.106;2023-07-22T11:20:34;24.00;99.90
12632;DHT22;6381;45.748;12.106;2023-07-22T11:23:05;23.60;99.90
12632;DHT22;6381;45.748;12.106;2023-07-22T11:25:36;23.40;99.90
12632;DHT22;6381;45.748;12.106;2023-07-22T11:28:07;23.40;99.90
12632;DHT22;6381;45.748;12.106;2023-07-22T11:30:37;23.20;99.90
12632;DHT22;6381;45.748;12.106;2023-07-22T11:33:12;22.80;99.90
12632;DHT22;6381;45.748;12.106;2023-07-22T11:35:43;23.10;99.90
12632;DHT22;6381;45.748;12.106;2023-07-22T11:38:14;23.10;99.90
12632;DHT22;6381;45.748;12.106;2023-07-22T11:40:49;23.20;99.90
12632;DHT22;6381;45.748;12.106;2023-07-22T11:43:21;23.10;99.90
12632;DHT22;6381;45.748;12.106;2023-07-22T11:45:55;22.80;99.90
12632;DHT22;6381;45.748;12.106;2023-07-22T11:48:29;22.60;99.90
12632;DHT22;6381;45.748;12.106;2023-07-22T11:51:00;22.40;99.90
12632;DHT22;6381;45.748;12.106;2023-07-22T11:53:31;22.30;99.90
12632;DHT22;6381;45.748;12.106;2023-07-22T11:56:03;22.40;99.90
12632;DHT22;6381;45.748;12.106;2023-07-22T11:58:35;22.70;99.90
12632;DHT22;6381;45.748;12.106;2023-07-22T12:01:09;23.00;99.90
12632;DHT22;6381;45.748;12.106;2023-07-22T12:03:45;23.50;99.90
12632;DHT22;6381;45.748;12.106;2023-07-22T12:06:16;23.40;99.90
12632;DHT22;6381;45.748;12.106;2023-07-22T12:08:51;23.40;99.90
12632;DHT22;6381;45.748;12.106;2023-07-22T12:11:24;23.60;99.90
12632;DHT22;6381;45.748;12.106;2023-07-22T12:14:08;23.60;99.90
12632;DHT22;6381;45.748;12.106;2023-07-22T12:16:43;23.40;99.90
12632;DHT22;6381;45.748;12.106;2023-07-22T12:19:19;23.50;99.90
12632;DHT22;6381;45.748;12.106;2023-07-22T12:21:50;24.00;99.90
12632;DHT22;6381;45.748;12.106;2023-07-22T12:24:21;24.40;99.90
12632;DHT22;6381;45.748;12.106;2023-07-22T12:26:55;25.20;99.90
12632;DHT22;6381;45.748;12.106;2023-07-22T12:29:27;25.60;99.90
12632;DHT22;6381;45.748;12.106;2023-07-22T12:31:57;25.90;99.90
12632;DHT22;6381;45.748;12.106;2023-07-22T12:34:31;26.60;99.90
12632;DHT22;6381;45.748;12.106;2023-07-22T12:37:00;27.20;99.90
12632;DHT22;6381;45.748;12.106;2023-07-22T12:39:31;27.80;99.90
12632;DHT22;6381;45.748;12.106;2023-07-22T12:42:03;28.30;98.00
12632;DHT22;6381;45.748;12.106;2023-07-22T12:44:33;28.40;96.00
12632;DHT22;6381;45.748;12.106;2023-07-22T12:47:05;28.40;96.10
12632;DHT22;6381;45.748;12.106;2023-07-22T12:49:37;28.20;93.90
12632;DHT22;6381;45.748;12.106;2023-07-22T12:52:08;28.70;94.30
12632;DHT22;6381;45.748;12.106;2023-07-22T12:54:41;28.80;95.20
12632;DHT22;6381;45.748;12.106;2023-07-22T12:57:11;29.30;95.10
12632;DHT22;6381;45.748;12.106;2023-07-22T12:59:42;29.40;93.40
12632;DHT22;6381;45.748;12.106;2023-07-22T13:02:17;29.20;92.20
12632;DHT22;6381;45.748;12.106;2023-07-22T13:04:50;29.50;92.90
12632;DHT22;6381;45.748;12.106;2023-07-22T13:07:20;29.50;89.00
12632;DHT22;6381;45.748;12.106;2023-07-22T13:09:54;29.70;88.90
12632;DHT22;6381;45.748;12.106;2023-07-22T13:12:26;30.10;91.30
12632;DHT22;6381;45.748;12.106;2023-07-22T13:14:56;29.90;88.40
12632;DHT22;6381;45.748;12.106;2023-07-22T13:17:26;29.70;87.20
12632;DHT22;6381;45.748;12.106;2023-07-22T13:19:59;29.10;84.60
12632;DHT22;6381;45.748;12.106;2023-07-22T13:22:30;29.10;81.40
12632;DHT22;6381;45.748;12.106;2023-07-22T13:25:00;29.30;81.00
12632;DHT22;6381;45.748;12.106;2023-07-22T13:27:31;29.10;82.50
12632;DHT22;6381;45.748;12.106;2023-07-22T13:30:05;30.10;83.50
12632;DHT22;6381;45.748;12.106;2023-07-22T13:32:36;30.30;86.20
12632;DHT22;6381;45.748;12.106;2023-07-22T13:35:10;30.10;81.00
12632;DHT22;6381;45.748;12.106;2023-07-22T13:37:41;30.20;78.00
12632;DHT22;6381;45.748;12.106;2023-07-22T13:40:13;30.20;75.90
12632;DHT22;6381;45.748;12.106;2023-07-22T13:42:44;30.90;77.30
12632;DHT22;6381;45.748;12.106;2023-07-22T13:45:15;30.70;74.60
12632;DHT22;6381;45.748;12.106;2023-07-22T13:47:46;30.80;76.70
12632;DHT22;6381;45.748;12.106;2023-07-22T13:50:20;31.10;75.50
12632;DHT22;6381;45.748;12.106;2023-07-22T13:52:51;31.80;76.70
12632;DHT22;6381;45.748;12.106;2023-07-22T13:55:28;31.60;71.80
12632;DHT22;6381;45.748;12.106;2023-07-22T13:58:00;31.60;71.50
12632;DHT22;6381;45.748;12.106;2023-07-22T14:00:31;32.20;67.90
12632;DHT22;6381;45.748;12.106;2023-07-22T14:03:06;32.30;69.00
12632;DHT22;6381;45.748;12.106;2023-07-22T14:05:57;32.40;66.70
12632;DHT22;6381;45.748;12.106;2023-07-22T14:08:37;32.10;70.10
12632;DHT22;6381;45.748;12.106;2023-07-22T14:11:15;32.20;69.70
12632;DHT22;6381;45.748;12.106;2023-07-22T14:13:47;32.30;69.70
12632;DHT22;6381;45.748;12.106;2023-07-22T14:16:21;32.30;67.40
12632;DHT22;6381;45.748;12.106;2023-07-22T14:18:53;32.20;67.40
12632;DHT22;6381;45.748;12.106;2023-07-22T14:21:27;32.30;68.40
12632;DHT22;6381;45.748;12.106;2023-07-22T14:23:59;32.30;68.30
12632;DHT22;6381;45.748;12.106;2023-07-22T14:26:33;32.40;65.50
12632;DHT22;6381;45.748;12.106;2023-07-22T14:29:04;32.40;64.40
12632;DHT22;6381;45.748;12.106;2023-07-22T14:31:37;32.60;66.30
12632;DHT22;6381;45.748;12.106;2023-07-22T14:34:09;32.40;66.90
12632;DHT22;6381;45.748;12.106;2023-07-22T14:36:49;32.50;64.70
12632;DHT22;6381;45.748;12.106;2023-07-22T14:39:21;32.60;66.10
12632;DHT22;6381;45.748;12.106;2023-07-22T14:41:58;32.90;62.70
12632;DHT22;6381;45.748;12.106;2023-07-22T14:45:20;32.70;63.70
12632;DHT22;6381;45.748;12.106;2023-07-22T14:47:52;32.70;63.50
12632;DHT22;6381;45.748;12.106;2023-07-22T14:50:34;32.40;64.60
12632;DHT22;6381;45.748;12.106;2023-07-22T14:53:09;31.90;64.60
12632;DHT22;6381;45.748;12.106;2023-07-22T14:55:41;32.40;65.30
12632;DHT22;6381;45.748;12.106;2023-07-22T14:58:14;32.90;65.80
12632;DHT22;6381;45.748;12.106;2023-07-22T15:00:57;32.90;61.80
12632;DHT22;6381;45.748;12.106;2023-07-22T15:03:36;32.70;60.50
12632;DHT22;6381;45.748;12.106;2023-07-22T15:06:10;33.20;61.40
12632;DHT22;6381;45.748;12.106;2023-07-22T15:08:45;32.90;64.00
12632;DHT22;6381;45.748;12.106;2023-07-22T15:11:15;32.90;63.80
12632;DHT22;6381;45.748;12.106;2023-07-22T15:13:46;33.20;62.50
12632;DHT22;6381;45.748;12.106;2023-07-22T15:16:20;32.80;62.10
12632;DHT22;6381;45.748;12.106;2023-07-22T15:18:54;33.00;60.50
12632;DHT22;6381;45.748;12.106;2023-07-22T15:21:25;33.10;61.30
12632;DHT22;6381;45.748;12.106;2023-07-22T15:24:00;32.90;58.80
12632;DHT22;6381;45.748;12.106;2023-07-22T15:26:34;32.70;60.00
12632;DHT22;6381;45.748;12.106;2023-07-22T15:29:04;32.90;61.90
12632;DHT22;6381;45.748;12.106;2023-07-22T15:31:35;33.00;61.40
12632;DHT22;6381;45.748;12.106;2023-07-22T15:34:07;33.10;60.90
12632;DHT22;6381;45.748;12.106;2023-07-22T15:36:38;32.90;61.00
12632;DHT22;6381;45.748;12.106;2023-07-22T15:39:11;32.70;60.00
12632;DHT22;6381;45.748;12.106;2023-07-22T15:41:42;31.80;62.60
12632;DHT22;6381;45.748;12.106;2023-07-22T15:44:15;32.40;63.40
12632;DHT22;6381;45.748;12.106;2023-07-22T15:46:46;32.50;60.20
12632;DHT22;6381;45.748;12.106;2023-07-22T15:49:17;31.70;61.80
12632;DHT22;6381;45.748;12.106;2023-07-22T15:51:50;31.60;62.90
12632;DHT22;6381;45.748;12.106;2023-07-22T15:54:23;31.90;61.70
12632;DHT22;6381;45.748;12.106;2023-07-22T15:56:54;31.60;61.90
12632;DHT22;6381;45.748;12.106;2023-07-22T15:59:24;31.10;62.30
12632;DHT22;6381;45.748;12.106;2023-07-22T16:01:55;31.50;61.80
12632;DHT22;6381;45.748;12.106;2023-07-22T16:04:29;32.50;61.20